Darstellungsparameter: Aktuell verwendete Einstellungen:
Skalierung der Graphiken ... ?
xyx+y,   Skalierungsfaktor:      Skalierung: Modus: x, Faktor: 1
Darstellungszeitraum ... ?
Vom - - bis: - -   Zeitraum: 04.06.2016 - 04.06.2016
Min/Max/Avg-Anzeige ... ?
Zeige MMA aktuell
Zeige MMA Monat
Zeige MMA alles
Zeige --A aktuell
Zeige --A Monat
Zeige --A alles
Keine MMA-Anzeige
MMA:
Keine MMA-Graphiken
MMA-Basis: 04.06.2016 - 04.06.2016
Quicknavigation für Darstellung... ?
Tage:      1T, 2T, 3T, 5T -1T -2T -3T -5T +1T +2T +3T +5T
Wochen: 1W, 2W, 3W -1W -2W -3W +1W +2W +3W
Monate: 1M, 3M, 6M -1M -3M -6M +1M +3M +6M
Jahre:    1J, 3J, 5J, 10J -1J -3J -5J -10J +1J +3J +5J +10J
Nutze für die Darstellung ... ?
Originaldaten oder Mittelwerte auf ...
Stundenbasis Tagesbasis Wochenbasis
Monatsbasis Jahresbasis      Datenbasis: Original-Daten
Darstellen als:
Statistik (Auto) Statistik J:M      Darstellung:
Zur Graphik,    zurück zur Übersicht aller Sensoren.
 
Tabellarische Datenbersicht: ?
 
Sensor: Nr:Datum:Temp:Feuchte:Taupunkt:
Aussen-T/F 1 04-06-2016 00:00:00 16.1 C 96 % 15.46 C
2 04-06-2016 00:05:00 16.1 C 96 % 15.46 C
3 04-06-2016 00:10:00 16 C 96 % 15.36 C
4 04-06-2016 00:15:00 16 C 96 % 15.36 C
5 04-06-2016 00:20:00 16 C 97 % 15.52 C
6 04-06-2016 00:25:00 15.9 C 97 % 15.42 C
7 04-06-2016 00:30:00 16.1 C 97 % 15.62 C
8 04-06-2016 00:35:00 16.2 C 97 % 15.72 C
9 04-06-2016 00:40:00 16.2 C 97 % 15.72 C
10 04-06-2016 00:45:00 16.2 C 97 % 15.72 C
11 04-06-2016 00:50:00 16.2 C 97 % 15.72 C
12 04-06-2016 00:55:00 16.2 C 97 % 15.72 C
13 04-06-2016 01:00:00 16.2 C 97 % 15.72 C
14 04-06-2016 01:05:00 16.1 C 97 % 15.62 C
15 04-06-2016 01:10:00 16.1 C 97 % 15.62 C
16 04-06-2016 01:15:00 16.1 C 97 % 15.62 C
17 04-06-2016 01:20:00 16.1 C 97 % 15.62 C
18 04-06-2016 01:25:00 16.1 C 97 % 15.62 C
19 04-06-2016 01:30:00 16 C 97 % 15.52 C
20 04-06-2016 01:35:00 16 C 97 % 15.52 C
21 04-06-2016 01:40:00 15.9 C 97 % 15.42 C
22 04-06-2016 01:45:00 15.9 C 97 % 15.42 C
23 04-06-2016 01:50:00 15.9 C 97 % 15.42 C
24 04-06-2016 01:55:00 15.8 C 97 % 15.32 C
25 04-06-2016 02:00:00 15.7 C 97 % 15.23 C
Sensor: Nr:Datum:Temp:Feuchte:Taupunkt:
Aussen-T/F 26 04-06-2016 02:05:00 15.6 C 97 % 15.13 C
27 04-06-2016 02:10:00 15.5 C 97 % 15.03 C
28 04-06-2016 02:15:00 15.4 C 97 % 14.93 C
29 04-06-2016 02:20:00 15.3 C 97 % 14.83 C
30 04-06-2016 02:25:00 15.3 C 97 % 14.83 C
31 04-06-2016 02:30:00 15.3 C 97 % 14.83 C
32 04-06-2016 02:35:00 15.2 C 97 % 14.73 C
33 04-06-2016 02:40:00 15.2 C 97 % 14.73 C
34 04-06-2016 02:45:00 15.1 C 97 % 14.63 C
35 04-06-2016 02:50:00 15 C 97 % 14.53 C
36 04-06-2016 02:55:00 15 C 97 % 14.53 C
37 04-06-2016 03:00:00 14.9 C 97 % 14.43 C
38 04-06-2016 03:05:00 14.9 C 97 % 14.43 C
39 04-06-2016 03:10:00 14.9 C 97 % 14.43 C
40 04-06-2016 03:15:00 14.9 C 97 % 14.43 C
41 04-06-2016 03:20:00 15 C 97 % 14.53 C
42 04-06-2016 03:25:00 15 C 97 % 14.53 C
43 04-06-2016 03:30:00 15.1 C 97 % 14.63 C
44 04-06-2016 03:35:00 15.1 C 97 % 14.63 C
45 04-06-2016 03:40:00 15.1 C 97 % 14.63 C
46 04-06-2016 03:45:00 15.2 C 97 % 14.73 C
47 04-06-2016 03:50:00 15.2 C 97 % 14.73 C
48 04-06-2016 03:55:00 15.2 C 97 % 14.73 C
49 04-06-2016 04:00:00 15.2 C 97 % 14.73 C
50 04-06-2016 04:05:00 15.2 C 97 % 14.73 C
Sensor: Nr:Datum:Temp:Feuchte:Taupunkt:
Aussen-T/F 51 04-06-2016 04:10:00 15.2 C 97 % 14.73 C
52 04-06-2016 04:15:00 15.2 C 97 % 14.73 C
53 04-06-2016 04:20:00 15.2 C 97 % 14.73 C
54 04-06-2016 04:25:00 15.3 C 97 % 14.83 C
55 04-06-2016 04:30:00 15.3 C 97 % 14.83 C
56 04-06-2016 04:35:00 15.4 C 97 % 14.93 C
57 04-06-2016 04:40:00 15.4 C 97 % 14.93 C
58 04-06-2016 04:45:00 15.4 C 97 % 14.93 C
59 04-06-2016 04:50:00 15.4 C 97 % 14.93 C
60 04-06-2016 04:55:00 15.4 C 97 % 14.93 C
61 04-06-2016 05:00:00 15.4 C 97 % 14.93 C
62 04-06-2016 05:05:00 15.4 C 97 % 14.93 C
63 04-06-2016 05:10:00 15.4 C 97 % 14.93 C
64 04-06-2016 05:15:00 15.4 C 97 % 14.93 C
65 04-06-2016 05:20:00 15.4 C 97 % 14.93 C
66 04-06-2016 05:25:00 15.4 C 97 % 14.93 C
67 04-06-2016 05:30:00 15.4 C 97 % 14.93 C
68 04-06-2016 05:35:00 15.4 C 97 % 14.93 C
69 04-06-2016 05:40:00 15.4 C 97 % 14.93 C
70 04-06-2016 05:45:00 15.4 C 97 % 14.93 C
71 04-06-2016 05:50:00 15.3 C 97 % 14.83 C
72 04-06-2016 05:55:00 15.2 C 97 % 14.73 C
73 04-06-2016 06:00:00 15.2 C 97 % 14.73 C
74 04-06-2016 06:05:00 15.2 C 97 % 14.73 C
75 04-06-2016 06:10:00 15.2 C 97 % 14.73 C
Sensor: Nr:Datum:Temp:Feuchte:Taupunkt:
Aussen-T/F 76 04-06-2016 06:15:00 15.3 C 97 % 14.83 C
77 04-06-2016 06:20:00 15.3 C 97 % 14.83 C
78 04-06-2016 06:25:00 15.2 C 97 % 14.73 C
79 04-06-2016 06:30:00 15.2 C 97 % 14.73 C
80 04-06-2016 06:35:00 15.2 C 97 % 14.73 C
81 04-06-2016 06:40:00 15.2 C 97 % 14.73 C
82 04-06-2016 06:45:00 15.3 C 97 % 14.83 C
83 04-06-2016 06:50:00 15.3 C 97 % 14.83 C
84 04-06-2016 06:55:00 15.3 C 97 % 14.83 C
85 04-06-2016 07:00:00 15.3 C 97 % 14.83 C
86 04-06-2016 07:05:00 15.3 C 97 % 14.83 C
87 04-06-2016 07:10:00 15.3 C 97 % 14.83 C
88 04-06-2016 07:15:00 15.3 C 97 % 14.83 C
89 04-06-2016 07:20:00 15.3 C 97 % 14.83 C
90 04-06-2016 07:25:00 15.4 C 97 % 14.93 C
91 04-06-2016 07:30:00 15.5 C 97 % 15.03 C
92 04-06-2016 07:35:00 15.5 C 97 % 15.03 C
93 04-06-2016 07:40:00 15.4 C 97 % 14.93 C
94 04-06-2016 07:45:00 15.4 C 97 % 14.93 C
95 04-06-2016 07:50:00 15.5 C 97 % 15.03 C
96 04-06-2016 07:55:00 15.6 C 97 % 15.13 C
97 04-06-2016 08:00:00 15.6 C 97 % 15.13 C
98 04-06-2016 08:05:00 15.6 C 97 % 15.13 C
99 04-06-2016 08:10:00 15.5 C 97 % 15.03 C
100 04-06-2016 08:15:00 15.6 C 97 % 15.13 C
Sensor: Nr:Datum:Temp:Feuchte:Taupunkt:
Aussen-T/F 101 04-06-2016 08:20:00 15.7 C 97 % 15.23 C
102 04-06-2016 08:25:00 15.8 C 97 % 15.32 C
103 04-06-2016 08:30:00 15.9 C 97 % 15.42 C
104 04-06-2016 08:35:00 15.8 C 97 % 15.32 C
105 04-06-2016 08:40:00 16 C 97 % 15.52 C
106 04-06-2016 08:45:00 16.1 C 97 % 15.62 C
107 04-06-2016 08:50:00 16.1 C 97 % 15.62 C
108 04-06-2016 08:55:00 16.1 C 97 % 15.62 C
109 04-06-2016 09:00:00 16.2 C 97 % 15.72 C
110 04-06-2016 09:05:00 16.3 C 97 % 15.82 C
111 04-06-2016 09:10:00 16.4 C 97 % 15.92 C
112 04-06-2016 09:15:00 16.5 C 96 % 15.86 C
113 04-06-2016 09:20:00 16.6 C 96 % 15.96 C
114 04-06-2016 09:25:00 16.6 C 96 % 15.96 C
115 04-06-2016 09:30:00 16.7 C 95 % 15.9 C
116 04-06-2016 09:35:00 16.8 C 95 % 15.99 C
117 04-06-2016 09:40:00 16.9 C 95 % 16.09 C
118 04-06-2016 09:45:00 17.1 C 94 % 16.13 C
119 04-06-2016 09:50:00 17.2 C 94 % 16.23 C
120 04-06-2016 09:55:00 17.3 C 93 % 16.16 C
121 04-06-2016 10:00:00 17.3 C 93 % 16.16 C
122 04-06-2016 10:05:00 17.4 C 93 % 16.26 C
123 04-06-2016 10:10:00 17.5 C 92 % 16.19 C
124 04-06-2016 10:15:00 17.6 C 93 % 16.45 C
125 04-06-2016 10:20:00 17.7 C 92 % 16.38 C
Sensor: Nr:Datum:Temp:Feuchte:Taupunkt:
Aussen-T/F 126 04-06-2016 10:25:00 17.8 C 92 % 16.48 C
127 04-06-2016 10:30:00 18 C 92 % 16.68 C
128 04-06-2016 10:35:00 18.2 C 91 % 16.71 C
129 04-06-2016 10:40:00 18.3 C 90 % 16.63 C
130 04-06-2016 10:45:00 18.5 C 91 % 17 C
131 04-06-2016 10:50:00 18.6 C 90 % 16.93 C
132 04-06-2016 10:55:00 18.7 C 89 % 16.85 C
133 04-06-2016 11:00:00 18.9 C 89 % 17.05 C
134 04-06-2016 11:05:00 18.9 C 87 % 16.69 C
135 04-06-2016 11:10:00 19.1 C 89 % 17.24 C
136 04-06-2016 11:15:00 19.2 C 87 % 16.98 C
137 04-06-2016 11:20:00 19.2 C 87 % 16.98 C
138 04-06-2016 11:25:00 19.3 C 86 % 16.9 C
139 04-06-2016 11:30:00 19.4 C 87 % 17.18 C
140 04-06-2016 11:35:00 19.5 C 86 % 17.1 C
141 04-06-2016 11:40:00 19.6 C 85 % 17.01 C
142 04-06-2016 11:45:00 19.7 C 86 % 17.29 C
143 04-06-2016 11:50:00 19.8 C 85 % 17.21 C
144 04-06-2016 11:55:00 19.8 C 88 % 17.75 C
145 04-06-2016 12:00:00 19.9 C 86 % 17.49 C
146 04-06-2016 12:05:00 19.9 C 88 % 17.85 C
147 04-06-2016 12:10:00 19.9 C 89 % 18.03 C
148 04-06-2016 12:15:00 19.8 C 85 % 17.21 C
149 04-06-2016 12:20:00 19.8 C 85 % 17.21 C
150 04-06-2016 12:25:00 19.9 C 86 % 17.49 C
Sensor: Nr:Datum:Temp:Feuchte:Taupunkt:
Aussen-T/F 151 04-06-2016 12:30:00 19.9 C 86 % 17.49 C
152 04-06-2016 12:35:00 19.9 C 89 % 18.03 C
153 04-06-2016 12:40:00 19.8 C 90 % 18.11 C
154 04-06-2016 12:45:00 19.8 C 88 % 17.75 C
155 04-06-2016 12:50:00 19.8 C 85 % 17.21 C
156 04-06-2016 12:55:00 19.9 C 85 % 17.3 C
157 04-06-2016 13:00:00 20.2 C 87 % 17.97 C
158 04-06-2016 13:05:00 20.3 C 89 % 18.43 C
159 04-06-2016 13:10:00 20.2 C 87 % 17.97 C
160 04-06-2016 13:15:00 20.3 C 86 % 17.88 C
161 04-06-2016 13:20:00 20.4 C 86 % 17.98 C
162 04-06-2016 13:25:00 20.7 C 85 % 18.09 C
163 04-06-2016 13:30:00 20.7 C 84 % 17.9 C
164 04-06-2016 13:35:00 20.7 C 84 % 17.9 C
165 04-06-2016 13:40:00 20.7 C 85 % 18.09 C
166 04-06-2016 13:45:00 20.7 C 86 % 18.27 C
167 04-06-2016 13:50:00 20.6 C 85 % 17.99 C
168 04-06-2016 13:55:00 20.6 C 85 % 17.99 C
169 04-06-2016 14:00:00 20.7 C 83 % 17.71 C
170 04-06-2016 14:05:00 20.7 C 84 % 17.9 C
171 04-06-2016 14:10:00 20.8 C 84 % 18 C
172 04-06-2016 14:15:00 20.9 C 84 % 18.09 C
173 04-06-2016 14:20:00 21.1 C 84 % 18.29 C
174 04-06-2016 14:25:00 21.2 C 82 % 18 C
175 04-06-2016 14:30:00 21.3 C 82 % 18.1 C
Sensor: Nr:Datum:Temp:Feuchte:Taupunkt:
Aussen-T/F 176 04-06-2016 14:35:00 21.4 C 82 % 18.2 C
177 04-06-2016 14:40:00 21.7 C 79 % 17.9 C
178 04-06-2016 14:45:00 21.7 C 79 % 17.9 C
179 04-06-2016 14:50:00 21.8 C 82 % 18.59 C
180 04-06-2016 14:55:00 21.8 C 78 % 17.79 C
181 04-06-2016 15:00:00 21.9 C 75 % 17.27 C
182 04-06-2016 15:05:00 22.2 C 76 % 17.77 C
183 04-06-2016 15:10:00 22.6 C 78 % 18.57 C
184 04-06-2016 15:15:00 22.7 C 74 % 17.83 C
185 04-06-2016 15:20:00 22.8 C 73 % 17.71 C
186 04-06-2016 15:25:00 22.9 C 69 % 16.91 C
187 04-06-2016 15:30:00 23.4 C 72 % 18.06 C
188 04-06-2016 15:35:00 23.6 C 68 % 17.35 C
189 04-06-2016 15:40:00 23.5 C 67 % 17.02 C
190 04-06-2016 15:45:00 23.3 C 68 % 17.06 C
191 04-06-2016 15:50:00 23.2 C 73 % 18.09 C
192 04-06-2016 15:55:00 23.3 C 72 % 17.97 C
193 04-06-2016 16:00:00 23.7 C 68 % 17.44 C
194 04-06-2016 16:05:00 24.3 C 67 % 17.78 C
195 04-06-2016 16:10:00 24.6 C 63 % 17.09 C
196 04-06-2016 16:15:00 24.8 C 60 % 16.51 C
197 04-06-2016 16:20:00 24.5 C 62 % 16.74 C
198 04-06-2016 16:25:00 24.1 C 66 % 17.35 C
199 04-06-2016 16:30:00 23.7 C 71 % 18.13 C
200 04-06-2016 16:35:00 23.6 C 65 % 16.64 C
Sensor: Nr:Datum:Temp:Feuchte:Taupunkt:
Aussen-T/F 201 04-06-2016 16:40:00 23.6 C 72 % 18.26 C
202 04-06-2016 16:45:00 23.2 C 72 % 17.87 C
203 04-06-2016 16:50:00 22.8 C 78 % 18.76 C
204 04-06-2016 16:55:00 22.3 C 77 % 18.07 C
205 04-06-2016 17:00:00 22 C 76 % 17.57 C
206 04-06-2016 17:05:00 21.7 C 79 % 17.9 C
207 04-06-2016 17:10:00 21.4 C 78 % 17.4 C
208 04-06-2016 17:15:00 21.2 C 80 % 17.61 C
209 04-06-2016 17:20:00 21.1 C 81 % 17.71 C
210 04-06-2016 17:25:00 20.8 C 81 % 17.42 C
211 04-06-2016 17:30:00 20.7 C 85 % 18.09 C
212 04-06-2016 17:35:00 20.3 C 85 % 17.7 C
213 04-06-2016 17:40:00 20 C 86 % 17.59 C
214 04-06-2016 17:45:00 19.7 C 87 % 17.47 C
215 04-06-2016 17:50:00 19.5 C 88 % 17.46 C
216 04-06-2016 17:55:00 19.3 C 89 % 17.44 C
217 04-06-2016 18:00:00 19.2 C 90 % 17.52 C
218 04-06-2016 18:05:00 19 C 90 % 17.32 C
219 04-06-2016 18:10:00 18.7 C 90 % 17.03 C
220 04-06-2016 18:15:00 18.5 C 90 % 16.83 C
221 04-06-2016 18:20:00 18.3 C 91 % 16.81 C
222 04-06-2016 18:25:00 18.2 C 91 % 16.71 C
223 04-06-2016 18:30:00 18.2 C 92 % 16.88 C
224 04-06-2016 18:35:00 18.2 C 93 % 17.05 C
225 04-06-2016 18:40:00 18.2 C 93 % 17.05 C
Sensor: Nr:Datum:Temp:Feuchte:Taupunkt:
Aussen-T/F 226 04-06-2016 18:45:00 18.2 C 93 % 17.05 C
227 04-06-2016 18:50:00 18.2 C 93 % 17.05 C
228 04-06-2016 18:55:00 18.2 C 94 % 17.22 C
229 04-06-2016 19:00:00 18.2 C 94 % 17.22 C
230 04-06-2016 19:05:00 18.3 C 94 % 17.32 C
231 04-06-2016 19:10:00 18.4 C 94 % 17.42 C
232 04-06-2016 19:15:00 18.6 C 95 % 17.78 C
233 04-06-2016 19:20:00 18.9 C 95 % 18.08 C
234 04-06-2016 19:25:00 19.3 C 95 % 18.48 C
235 04-06-2016 19:30:00 19.7 C 95 % 18.88 C
236 04-06-2016 19:35:00 19.8 C 93 % 18.63 C
237 04-06-2016 19:40:00 20 C 92 % 18.66 C
238 04-06-2016 19:45:00 20.3 C 90 % 18.61 C
239 04-06-2016 19:50:00 20.7 C 89 % 18.82 C
240 04-06-2016 19:55:00 21.1 C 87 % 18.85 C
241 04-06-2016 20:00:00 21.2 C 85 % 18.58 C
242 04-06-2016 20:05:00 21.2 C 84 % 18.39 C
243 04-06-2016 20:10:00 20.9 C 85 % 18.28 C
244 04-06-2016 20:15:00 20.4 C 84 % 17.61 C
245 04-06-2016 20:20:00 20 C 86 % 17.59 C
246 04-06-2016 20:25:00 19.5 C 86 % 17.1 C
247 04-06-2016 20:30:00 19.1 C 87 % 16.89 C
248 04-06-2016 20:35:00 18.7 C 88 % 16.67 C
249 04-06-2016 20:40:00 18.3 C 89 % 16.46 C
250 04-06-2016 20:45:00 17.9 C 90 % 16.24 C
Sensor: Nr:Datum:Temp:Feuchte:Taupunkt:
Aussen-T/F 251 04-06-2016 20:50:00 17.7 C 90 % 16.04 C
252 04-06-2016 20:55:00 17.4 C 91 % 15.92 C
253 04-06-2016 21:00:00 17.1 C 92 % 15.79 C
254 04-06-2016 21:05:00 16.9 C 92 % 15.59 C
255 04-06-2016 21:10:00 16.7 C 92 % 15.39 C
256 04-06-2016 21:15:00 16.6 C 93 % 15.46 C
257 04-06-2016 21:20:00 16.4 C 93 % 15.27 C
258 04-06-2016 21:25:00 16.4 C 94 % 15.43 C
259 04-06-2016 21:30:00 16.3 C 94 % 15.33 C
260 04-06-2016 21:35:00 16.3 C 94 % 15.33 C
261 04-06-2016 21:40:00 16.4 C 95 % 15.6 C
262 04-06-2016 21:45:00 16.4 C 95 % 15.6 C
263 04-06-2016 21:50:00 16.4 C 95 % 15.6 C
264 04-06-2016 21:55:00 16.3 C 95 % 15.5 C
265 04-06-2016 22:00:00 16.3 C 95 % 15.5 C
266 04-06-2016 22:05:00 16.3 C 95 % 15.5 C
267 04-06-2016 22:10:00 16.3 C 95 % 15.5 C
268 04-06-2016 22:15:00 16.3 C 95 % 15.5 C
269 04-06-2016 22:20:00 16.3 C 95 % 15.5 C
270 04-06-2016 22:25:00 16.2 C 95 % 15.4 C
271 04-06-2016 22:30:00 16.1 C 95 % 15.3 C
272 04-06-2016 22:35:00 16 C 95 % 15.2 C
273 04-06-2016 22:40:00 15.9 C 95 % 15.1 C
274 04-06-2016 22:45:00 15.9 C 95 % 15.1 C
275 04-06-2016 22:50:00 15.9 C 95 % 15.1 C
Sensor: Nr:Datum:Temp:Feuchte:Taupunkt:
Aussen-T/F 276 04-06-2016 22:55:00 15.8 C 95 % 15 C
277 04-06-2016 23:00:00 15.8 C 95 % 15 C
278 04-06-2016 23:05:00 15.8 C 95 % 15 C
279 04-06-2016 23:10:00 15.8 C 96 % 15.16 C
280 04-06-2016 23:15:00 15.8 C 96 % 15.16 C
281 04-06-2016 23:20:00 15.9 C 96 % 15.26 C
282 04-06-2016 23:25:00 15.9 C 96 % 15.26 C
283 04-06-2016 23:30:00 16 C 96 % 15.36 C
284 04-06-2016 23:35:00 16 C 96 % 15.36 C
285 04-06-2016 23:40:00 16.1 C 96 % 15.46 C
286 04-06-2016 23:45:00 16.1 C 96 % 15.46 C
287 04-06-2016 23:50:00 16.1 C 96 % 15.46 C
288 04-06-2016 23:55:00 16.1 C 96 % 15.46 C

Legende:
   Min
   Max


Maximal/Minimal-Werte vom 04.06.2016 - 04.06.2016

Sensor Min Max Avg
Temp
(Aussen-T/F)
14.9 °C
04-06-2016  03:00:00
24.8 °C
04-06-2016  16:15:00
17.85 °C
Feuchte
(Aussen-T/F)
60 %
04-06-2016  16:15:00
97 %
04-06-2016  00:20:00
90.85 %
Taupunkt
(Aussen-T/F)
14.43 C
04-06-2016  03:00:00
18.88 C
04-06-2016  19:30:00
16.19 C

Die Daten stammen von einer Davis Vantage Pro 2 Wetter-Station und werden unter Linux mit der Software wview2wettercgi und aufbereitet. Alle Angaben erfolgen ohne Gewähr für ihre Vollständigkeit oder Richtigkeit.
Kontakt: Rainer Krienke krienke@uni-koblenz.de . Meine Webseiten an der Uni Koblenz oder privat.
Version: $Revision: 0.78 $